Bathurst, Canada
Current Conditions -  °F | °C
As of 4:00 AM on Saturday 25 Oct 2014 (Local Time) from CZBF Reporting Station
Light Rain Light Rain  
Wind Chill: 37°   Ceiling: 1000
Heat Index: 41°   Visibility: 3mi
Dew Point: 39°   Wind: 6mph
Humidity: 93%   Direction: 350°N
Pressure: 29.6"   Gusts: NA
Location:  47.62°N, 65.65°W
Report Text: CZBF 250700Z 35005KT 300V040 3SM -RA BR OVC010 05/04 A2960 RMK SC8 SLP027
Loading
Personal Weather Stations






























Interactive Weather Map
Tropical Storm Tracking
New forecast layout! Learn more

10-Day Weather Forecast

Advertisements
Track Severe Weather on mobile